createdAt,value
2023-02-15T00:00:00.212Z,2.60
2023-02-15T00:02:34.492Z,1.83
2023-02-15T00:05:08.179Z,1.90
2023-02-15T00:07:35.536Z,2.00
2023-02-15T00:10:09.249Z,1.97
2023-02-15T00:12:43.183Z,1.60
2023-02-15T00:15:10.593Z,1.80
2023-02-15T00:17:44.200Z,2.00
2023-02-15T00:20:18.186Z,1.70
2023-02-15T00:22:55.393Z,1.83
2023-02-15T00:25:29.369Z,2.20
2023-02-15T00:28:03.339Z,2.17
2023-02-15T00:30:31.736Z,2.43
2023-02-15T00:33:05.325Z,2.30
2023-02-15T00:35:32.677Z,1.77
2023-02-15T00:38:06.367Z,2.20
2023-02-15T00:40:33.730Z,2.33
2023-02-15T00:43:08.384Z,2.27
2023-02-15T00:45:42.397Z,1.90
2023-02-15T00:48:16.627Z,2.10
2023-02-15T00:50:53.471Z,1.23
2023-02-15T00:53:21.732Z,1.50
2023-02-15T00:55:56.388Z,1.60
2023-02-15T00:58:24.149Z,1.67
2023-02-15T01:00:58.364Z,1.63
2023-02-15T01:03:32.416Z,1.63
2023-02-15T01:06:06.420Z,1.40
2023-02-15T01:08:40.379Z,1.40
2023-02-15T01:11:17.429Z,1.20
2023-02-15T01:13:45.308Z,1.17
2023-02-15T01:16:19.400Z,1.57
2023-02-15T01:18:49.472Z,1.10
2023-02-15T01:21:35.695Z,1.30
2023-02-15T01:24:03.565Z,1.30
2023-02-15T01:26:37.428Z,1.30
2023-02-15T01:29:13.652Z,1.23
2023-02-15T01:31:41.250Z,1.60
2023-02-15T01:34:14.704Z,1.30
2023-02-15T01:36:48.699Z,1.67
2023-02-15T01:39:22.753Z,1.30
2023-02-15T01:41:52.031Z,1.27
2023-02-15T01:44:55.725Z,1.20
2023-02-15T01:47:52.687Z,1.60
2023-02-15T01:51:00.978Z,1.50
2023-02-15T01:53:39.486Z,0.90
2023-02-15T01:56:25.722Z,1.57
2023-02-15T01:58:56.402Z,1.57
2023-02-15T02:01:33.015Z,1.63
2023-02-15T02:04:38.678Z,1.10
2023-02-15T02:07:07.216Z,1.40
2023-02-15T02:09:41.701Z,1.57
2023-02-15T02:12:16.831Z,1.50
2023-02-15T02:14:51.706Z,1.37
2023-02-15T02:17:50.700Z,1.77
2023-02-15T02:20:34.004Z,1.40
2023-02-15T02:23:39.669Z,1.60
2023-02-15T02:26:31.217Z,1.43
2023-02-15T02:29:49.749Z,1.70
2023-02-15T02:32:39.676Z,1.60
2023-02-15T02:35:34.857Z,1.60
2023-02-15T02:38:33.681Z,1.70
2023-02-15T02:41:36.683Z,1.43
2023-02-15T02:44:29.688Z,1.50
2023-02-15T02:47:16.702Z,1.63
2023-02-15T02:49:45.192Z,1.87
2023-02-15T02:52:43.513Z,1.50
2023-02-15T02:55:29.083Z,1.40
2023-02-15T02:58:18.555Z,1.47
2023-02-15T03:01:15.533Z,1.50
2023-02-15T03:04:09.547Z,1.27
2023-02-15T03:06:49.188Z,1.57
2023-02-15T03:09:32.506Z,1.40
2023-02-15T03:11:59.866Z,1.43
2023-02-15T03:14:33.493Z,1.10
2023-02-15T03:17:02.733Z,1.20
2023-02-15T03:19:40.579Z,1.20
2023-02-15T03:22:20.482Z,1.03
2023-02-15T03:25:18.533Z,0.93
2023-02-15T03:28:00.576Z,0.83
2023-02-15T03:30:37.648Z,0.63
2023-02-15T03:33:14.568Z,1.17
2023-02-15T03:35:54.018Z,0.90
2023-02-15T03:38:42.629Z,0.93
2023-02-15T03:41:12.090Z,0.70
2023-02-15T03:44:00.551Z,0.90
2023-02-15T03:47:02.454Z,0.87
2023-02-15T03:50:01.495Z,1.10
2023-02-15T03:52:38.569Z,1.20
2023-02-15T03:55:12.564Z,0.97
2023-02-15T03:57:58.386Z,1.03
2023-02-15T04:00:51.563Z,0.97
2023-02-15T04:03:46.547Z,1.07
2023-02-15T04:06:20.608Z,0.80
2023-02-15T04:09:13.503Z,0.90
2023-02-15T04:11:47.554Z,1.30
2023-02-15T04:14:40.513Z,1.07
2023-02-15T04:17:15.530Z,1.10
2023-02-15T04:20:07.550Z,1.03
2023-02-15T04:23:00.547Z,1.33
2023-02-15T04:25:28.158Z,1.07
2023-02-15T04:28:02.522Z,1.23
2023-02-15T04:30:31.997Z,1.20
2023-02-15T04:33:05.899Z,1.50
2023-02-15T04:35:34.540Z,1.47
2023-02-15T04:38:08.936Z,1.27
2023-02-15T04:40:42.914Z,1.23
2023-02-15T04:43:16.900Z,3.27
2023-02-15T04:45:58.009Z,1.50
2023-02-15T04:48:34.297Z,1.10
2023-02-15T04:51:06.147Z,1.27
2023-02-15T04:53:40.312Z,1.10
2023-02-15T04:56:07.692Z,0.90
2023-02-15T04:58:42.283Z,2.70
2023-02-15T05:01:17.345Z,1.20
2023-02-15T05:03:52.390Z,0.93
2023-02-15T05:06:26.309Z,1.10
2023-02-15T05:08:53.683Z,0.60
2023-02-15T05:11:28.306Z,0.70
2023-02-15T05:14:03.324Z,0.63
2023-02-15T05:16:30.844Z,3.20
2023-02-15T05:19:05.312Z,2.13
2023-02-15T05:21:33.532Z,0.90
2023-02-15T05:24:07.360Z,0.60
2023-02-15T05:27:01.708Z,0.63
2023-02-15T05:29:30.504Z,0.90
2023-02-15T05:32:04.436Z,0.50
2023-02-15T05:34:32.078Z,0.63
2023-02-15T05:37:08.310Z,0.63
2023-02-15T05:39:42.290Z,0.80
2023-02-15T05:42:09.733Z,0.50
2023-02-15T05:44:44.429Z,0.40
2023-02-15T05:47:11.863Z,0.70
2023-02-15T05:49:46.429Z,0.57
2023-02-15T05:52:13.774Z,0.50
2023-02-15T05:54:47.341Z,0.57
2023-02-15T05:57:16.205Z,0.70
2023-02-15T05:59:54.584Z,0.90
2023-02-15T06:02:48.447Z,0.90
2023-02-15T06:05:25.044Z,0.80
2023-02-15T06:07:59.304Z,1.20
2023-02-15T06:10:26.802Z,0.80
2023-02-15T06:13:00.287Z,0.90
2023-02-15T06:15:34.402Z,0.90
2023-02-15T06:18:10.230Z,1.07
2023-02-15T06:20:40.178Z,0.93
2023-02-15T06:23:16.795Z,0.80
2023-02-15T06:25:45.176Z,1.03
2023-02-15T06:28:19.314Z,0.90
2023-02-15T06:30:47.122Z,1.00
2023-02-15T06:33:23.350Z,0.93
2023-02-15T06:35:57.339Z,0.73
2023-02-15T06:38:31.295Z,0.90
2023-02-15T06:41:05.320Z,0.87
2023-02-15T06:43:35.605Z,0.90
2023-02-15T06:46:09.364Z,0.83
2023-02-15T06:48:44.753Z,0.97
2023-02-15T06:51:12.233Z,0.90
2023-02-15T06:53:49.308Z,0.90
2023-02-15T06:56:16.695Z,1.10
2023-02-15T06:58:53.352Z,1.00
2023-02-15T07:01:20.934Z,0.80
2023-02-15T07:03:55.347Z,1.20
2023-02-15T07:06:36.304Z,1.20
2023-02-15T07:09:05.574Z,1.00
2023-02-15T07:11:58.328Z,0.60
2023-02-15T07:14:32.333Z,1.00
2023-02-15T07:16:59.935Z,1.00
2023-02-15T07:19:39.287Z,0.90
2023-02-15T07:22:06.688Z,0.73
2023-02-15T07:24:41.538Z,1.00
2023-02-15T07:27:09.436Z,0.93
2023-02-15T07:29:43.334Z,1.00
2023-02-15T07:32:17.364Z,0.90
2023-02-15T07:34:45.135Z,0.90
2023-02-15T07:37:21.810Z,1.10
2023-02-15T07:39:52.187Z,0.80
2023-02-15T07:42:27.354Z,1.07
2023-02-15T07:45:01.038Z,0.90
2023-02-15T07:47:35.349Z,0.87
2023-02-15T07:50:03.579Z,0.90
2023-02-15T07:52:37.423Z,1.30
2023-02-15T07:55:12.414Z,1.27
2023-02-15T07:57:43.079Z,1.10
2023-02-15T08:00:19.469Z,1.23
2023-02-15T08:03:23.390Z,1.07
2023-02-15T08:05:57.402Z,1.20
2023-02-15T08:08:31.172Z,1.10
2023-02-15T08:11:44.583Z,1.30
2023-02-15T08:14:21.444Z,1.45
2023-02-15T08:16:51.645Z,1.70
2023-02-15T08:19:39.408Z,1.45
2023-02-15T08:22:09.298Z,2.05
2023-02-15T08:24:45.339Z,4.53
2023-02-15T08:27:18.545Z,8.50
2023-02-15T08:29:53.407Z,6.03
2023-02-15T08:32:21.895Z,6.80
2023-02-15T08:34:56.372Z,33.20
2023-02-15T08:37:31.565Z,4.30
2023-02-15T08:40:16.217Z,2.00
2023-02-15T08:42:56.438Z,2.00
2023-02-15T08:45:26.388Z,2.00
2023-02-15T08:48:01.473Z,1.70
2023-02-15T08:50:35.433Z,1.73
2023-02-15T08:53:05.197Z,1.88
2023-02-15T08:55:39.476Z,2.50
2023-02-15T08:58:20.451Z,1.92
2023-02-15T09:00:54.652Z,1.55
2023-02-15T09:03:52.152Z,2.42
2023-02-15T09:06:31.467Z,3.03
2023-02-15T09:09:11.430Z,2.05
2023-02-15T09:11:41.733Z,1.98
2023-02-15T09:14:23.596Z,1.80
2023-02-15T09:16:59.596Z,1.48
2023-02-15T09:19:30.618Z,2.50
2023-02-15T09:22:06.509Z,1.80
2023-02-15T09:24:41.480Z,2.13
2023-02-15T09:27:15.412Z,2.67
2023-02-15T09:29:49.460Z,2.10
2023-02-15T09:32:18.712Z,2.00
2023-02-15T09:34:54.642Z,1.95
2023-02-15T09:37:29.424Z,1.80
2023-02-15T09:39:56.974Z,1.58
2023-02-15T09:43:00.565Z,1.90
2023-02-15T09:45:54.506Z,2.22
2023-02-15T09:48:49.506Z,2.08
2023-02-15T09:51:40.292Z,2.00
2023-02-15T09:54:36.545Z,2.13
2023-02-15T09:57:30.457Z,1.98
2023-02-15T10:00:50.429Z,2.17
2023-02-15T10:03:55.555Z,2.10
2023-02-15T10:07:16.517Z,2.10
2023-02-15T10:10:11.090Z,2.22
2023-02-15T10:13:04.438Z,2.22
2023-02-15T10:16:00.442Z,1.60
2023-02-15T10:18:48.513Z,1.80
2023-02-15T10:22:01.459Z,2.03
2023-02-15T10:25:05.027Z,2.15
2023-02-15T10:27:45.493Z,2.40
2023-02-15T10:30:32.409Z,2.03
2023-02-15T10:33:21.152Z,2.53
2023-02-15T10:36:25.113Z,1.90
2023-02-15T10:39:04.395Z,1.83
2023-02-15T10:42:01.126Z,2.35
2023-02-15T10:44:56.019Z,2.20
2023-02-15T10:48:14.186Z,2.30
2023-02-15T10:50:55.114Z,2.45
2023-02-15T10:54:01.180Z,2.40
2023-02-15T10:56:42.158Z,2.40
2023-02-15T10:59:44.174Z,2.28
2023-02-15T11:02:50.143Z,2.20
2023-02-15T11:05:47.121Z,1.90
2023-02-15T11:08:15.121Z,2.20
2023-02-15T11:11:01.440Z,2.10
2023-02-15T11:13:38.151Z,2.05
2023-02-15T11:16:23.127Z,2.30
2023-02-15T11:19:06.116Z,2.15
2023-02-15T11:21:48.313Z,2.28
2023-02-15T11:24:27.211Z,2.30
2023-02-15T11:27:13.171Z,2.20
2023-02-15T11:29:54.187Z,2.13
2023-02-15T11:33:03.728Z,2.10
2023-02-15T11:35:57.157Z,2.58
2023-02-15T11:38:37.098Z,2.15
2023-02-15T11:41:30.166Z,2.03
2023-02-15T11:44:19.157Z,2.47
2023-02-15T11:46:53.126Z,2.55
2023-02-15T11:49:40.121Z,2.45
2023-02-15T11:52:19.095Z,2.80
2023-02-15T11:54:58.498Z,2.72
2023-02-15T11:57:43.176Z,2.90
2023-02-15T12:00:46.190Z,2.70
2023-02-15T12:03:54.229Z,2.63
2023-02-15T12:06:46.248Z,2.35
2023-02-15T12:09:48.150Z,2.53
2023-02-15T12:12:24.634Z,2.60
2023-02-15T12:15:01.164Z,2.40
2023-02-15T12:18:00.165Z,2.70
2023-02-15T12:20:35.097Z,2.88
2023-02-15T12:23:19.156Z,2.70
2023-02-15T12:26:04.095Z,3.15
2023-02-15T12:28:44.103Z,2.58
2023-02-15T12:31:33.931Z,3.00
2023-02-15T12:34:17.166Z,2.75
2023-02-15T12:36:58.205Z,2.83
2023-02-15T12:39:39.264Z,3.20
2023-02-15T12:42:17.474Z,2.70
2023-02-15T12:45:02.201Z,2.90
2023-02-15T12:47:33.505Z,2.92
2023-02-15T12:50:36.243Z,3.28
2023-02-15T12:53:21.838Z,3.40
2023-02-15T12:56:15.306Z,3.28
2023-02-15T12:58:44.122Z,3.67
2023-02-15T13:01:25.491Z,3.22
2023-02-15T13:04:19.290Z,3.65
2023-02-15T13:06:59.249Z,4.00
2023-02-15T13:09:32.799Z,3.33
2023-02-15T13:12:31.246Z,3.83
2023-02-15T13:15:00.206Z,4.25
2023-02-15T13:17:42.240Z,3.80
2023-02-15T13:20:33.999Z,3.60
2023-02-15T13:23:06.202Z,3.75
2023-02-15T13:25:57.551Z,3.55
2023-02-15T13:28:38.556Z,3.40
2023-02-15T13:31:40.787Z,3.95
2023-02-15T13:34:26.545Z,3.80
2023-02-15T13:37:25.009Z,3.85
2023-02-15T13:40:15.655Z,4.32
2023-02-15T13:43:00.047Z,3.60
2023-02-15T13:45:52.063Z,3.58
2023-02-15T13:48:45.951Z,3.50
2023-02-15T13:51:48.031Z,3.08
2023-02-15T13:54:41.420Z,3.83
2023-02-15T13:57:46.611Z,4.03
2023-02-15T14:00:47.127Z,3.80
2023-02-15T14:03:59.050Z,3.85
2023-02-15T14:06:43.007Z,3.53
2023-02-15T14:09:26.011Z,3.47
2023-02-15T14:12:29.790Z,3.90
2023-02-15T14:15:34.503Z,3.70
2023-02-15T14:18:19.787Z,3.90
2023-02-15T14:20:52.110Z,3.50
2023-02-15T14:24:27.210Z,3.80
2023-02-15T14:27:22.647Z,3.63
2023-02-15T14:30:03.847Z,3.22
2023-02-15T14:32:43.047Z,3.40
2023-02-15T14:35:25.189Z,3.15
2023-02-15T14:38:03.040Z,3.50
2023-02-15T14:41:08.166Z,3.65
2023-02-15T14:44:02.511Z,3.70
2023-02-15T14:47:28.026Z,3.78
2023-02-15T14:49:55.763Z,3.60
2023-02-15T14:52:30.197Z,3.90
2023-02-15T14:55:00.363Z,3.78
2023-02-15T14:57:36.744Z,4.15
2023-02-15T15:00:36.971Z,4.55
2023-02-15T15:03:25.085Z,5.18
2023-02-15T15:06:10.467Z,5.20
2023-02-15T15:08:44.541Z,5.00
2023-02-15T15:12:01.529Z,5.63
2023-02-15T15:14:41.564Z,5.88
2023-02-15T15:17:41.387Z,5.75
2023-02-15T15:20:42.518Z,6.50
2023-02-15T15:23:43.627Z,5.95
2023-02-15T15:26:33.618Z,6.82
2023-02-15T15:29:09.526Z,7.18
2023-02-15T15:31:42.579Z,6.85
2023-02-15T15:34:37.514Z,8.25
2023-02-15T15:37:23.550Z,7.75
2023-02-15T15:40:11.394Z,7.50
2023-02-15T15:43:36.363Z,7.50
2023-02-15T15:46:13.509Z,7.70
2023-02-15T15:48:49.453Z,7.47
2023-02-15T15:51:40.536Z,8.10
2023-02-15T15:54:34.085Z,8.13
2023-02-15T15:57:04.182Z,7.78
2023-02-15T15:59:51.082Z,7.47
2023-02-15T16:02:31.986Z,7.53
2023-02-15T16:05:16.744Z,7.80
2023-02-15T16:07:51.792Z,7.53
2023-02-15T16:10:34.714Z,7.45
2023-02-15T16:13:09.733Z,8.48
2023-02-15T16:15:52.743Z,6.07
2023-02-15T16:18:27.627Z,5.32
2023-02-15T16:21:10.428Z,5.60
2023-02-15T16:24:07.155Z,5.70
2023-02-15T16:27:07.980Z,5.50
2023-02-15T16:29:48.590Z,4.77
2023-02-15T16:32:22.491Z,4.70
2023-02-15T16:35:09.545Z,4.97
2023-02-15T16:37:44.597Z,5.37
2023-02-15T16:40:40.544Z,5.37
2023-02-15T16:43:17.778Z,5.70
2023-02-15T16:45:55.024Z,5.30
2023-02-15T16:48:27.727Z,5.90
2023-02-15T16:51:05.446Z,5.40
2023-02-15T16:53:32.998Z,5.80
2023-02-15T16:56:12.120Z,5.60
2023-02-15T16:58:44.595Z,5.97
2023-02-15T17:01:22.193Z,5.00
2023-02-15T17:04:24.792Z,4.10
2023-02-15T17:07:27.953Z,4.60
2023-02-15T17:10:02.499Z,4.37
2023-02-15T17:13:05.626Z,4.90
2023-02-15T17:15:40.869Z,4.33
2023-02-15T17:18:22.814Z,4.60
2023-02-15T17:20:57.955Z,4.90
2023-02-15T17:23:37.150Z,4.33
2023-02-15T17:26:19.776Z,3.83
2023-02-15T17:29:18.400Z,3.37
2023-02-15T17:31:50.715Z,3.53
2023-02-15T17:34:49.411Z,3.10
2023-02-15T17:37:33.320Z,3.23
2023-02-15T17:40:13.377Z,3.00
2023-02-15T17:42:40.836Z,2.70
2023-02-15T17:45:15.605Z,2.87
2023-02-15T17:47:43.754Z,2.60
2023-02-15T17:50:29.408Z,3.17
2023-02-15T17:52:58.248Z,2.63
2023-02-15T17:55:42.462Z,2.87
2023-02-15T17:58:19.405Z,2.87
2023-02-15T18:01:15.460Z,3.83
2023-02-15T18:04:08.245Z,4.00
2023-02-15T18:07:05.226Z,4.07
2023-02-15T18:10:04.275Z,4.00
2023-02-15T18:12:40.045Z,3.90
2023-02-15T18:15:16.194Z,4.17
2023-02-15T18:17:48.808Z,4.43
2023-02-15T18:20:31.341Z,4.30
2023-02-15T18:23:06.051Z,4.43
2023-02-15T18:25:39.809Z,3.80
2023-02-15T18:28:07.316Z,4.20
2023-02-15T18:30:41.943Z,3.80
2023-02-15T18:33:43.820Z,3.30
2023-02-15T18:36:28.059Z,3.67
2023-02-15T18:39:08.612Z,3.60
2023-02-15T18:41:36.637Z,3.57
2023-02-15T18:44:10.381Z,4.10
2023-02-15T18:46:37.949Z,4.23
2023-02-15T18:49:12.362Z,4.07
2023-02-15T18:51:47.346Z,6.13
2023-02-15T18:54:23.455Z,6.63
2023-02-15T18:57:07.485Z,7.10
2023-02-15T18:59:41.407Z,7.13
2023-02-15T19:02:23.465Z,8.03
2023-02-15T19:04:59.244Z,8.87
2023-02-15T19:07:31.488Z,8.10
2023-02-15T19:10:08.012Z,8.87
2023-02-15T19:12:42.179Z,6.37
2023-02-15T19:15:30.006Z,8.60
2023-02-15T19:17:57.576Z,6.40
2023-02-15T19:20:36.011Z,6.37
2023-02-15T19:23:08.173Z,7.23
2023-02-15T19:25:46.071Z,6.70
2023-02-15T19:28:32.694Z,6.20
2023-02-15T19:31:07.115Z,6.70
2023-02-15T19:33:35.129Z,6.47
2023-02-15T19:36:13.443Z,5.57
2023-02-15T19:38:49.479Z,6.40
2023-02-15T19:41:36.414Z,6.37
2023-02-15T19:44:10.369Z,5.43
2023-02-15T19:46:45.413Z,6.10
2023-02-15T19:49:13.392Z,5.93
2023-02-15T19:51:47.426Z,5.53
2023-02-15T19:54:34.432Z,6.47
2023-02-15T19:57:09.796Z,5.90
2023-02-15T19:59:40.344Z,5.97
2023-02-15T20:02:21.567Z,6.00
2023-02-15T20:04:55.693Z,5.97
2023-02-15T20:07:27.538Z,5.70
2023-02-15T20:10:01.648Z,5.80
2023-02-15T20:12:42.765Z,6.23
2023-02-15T20:15:27.711Z,5.77
2023-02-15T20:17:59.305Z,5.37
2023-02-15T20:20:46.766Z,5.17
2023-02-15T20:23:33.778Z,5.83
2023-02-15T20:26:11.476Z,5.40
2023-02-15T20:28:45.803Z,5.10
2023-02-15T20:31:24.899Z,4.83
2023-02-15T20:33:55.389Z,5.30
2023-02-15T20:36:30.393Z,5.40
2023-02-15T20:39:01.282Z,4.83
2023-02-15T20:41:46.431Z,4.60
2023-02-15T20:44:29.421Z,5.00
2023-02-15T20:47:05.359Z,4.43
2023-02-15T20:49:38.450Z,4.67
2023-02-15T20:52:27.285Z,5.67
2023-02-15T20:54:57.058Z,4.87
2023-02-15T20:57:31.114Z,4.53
2023-02-15T21:00:00.795Z,4.57
2023-02-15T21:02:34.783Z,4.70
2023-02-15T21:05:08.880Z,4.80
2023-02-15T21:07:36.573Z,4.60
2023-02-15T21:10:10.773Z,4.47
2023-02-15T21:12:38.291Z,4.73
2023-02-15T21:15:24.745Z,4.77
2023-02-15T21:17:58.782Z,4.77
2023-02-15T21:20:34.805Z,4.87
2023-02-15T21:23:11.900Z,5.60
2023-02-15T21:25:39.842Z,5.67
2023-02-15T21:28:14.808Z,6.77
2023-02-15T21:30:42.282Z,6.10
2023-02-15T21:33:15.820Z,6.77
2023-02-15T21:35:53.919Z,7.47
2023-02-15T21:38:30.792Z,6.93
2023-02-15T21:41:24.757Z,7.20
2023-02-15T21:44:19.821Z,6.90
2023-02-15T21:47:05.587Z,7.10
2023-02-15T21:49:39.756Z,6.33
2023-02-15T21:52:12.326Z,6.00
2023-02-15T21:54:47.794Z,6.07
2023-02-15T21:57:23.767Z,6.33
2023-02-15T21:59:57.745Z,5.10
2023-02-15T22:02:37.791Z,5.30
2023-02-15T22:05:13.072Z,4.80
2023-02-15T22:07:46.748Z,5.00
2023-02-15T22:10:34.816Z,4.40
2023-02-15T22:13:09.817Z,4.43
2023-02-15T22:15:37.990Z,5.30
2023-02-15T22:18:12.819Z,4.77
2023-02-15T22:20:46.777Z,5.00
2023-02-15T22:23:14.286Z,4.57
2023-02-15T22:25:48.818Z,3.70
2023-02-15T22:28:16.885Z,4.10
2023-02-15T22:30:53.806Z,3.80
2023-02-15T22:33:33.863Z,3.97
2023-02-15T22:36:07.866Z,3.93
2023-02-15T22:38:35.228Z,3.90
2023-02-15T22:41:10.905Z,3.60
2023-02-15T22:43:47.856Z,3.70
2023-02-15T22:46:18.917Z,3.90
2023-02-15T22:48:56.538Z,3.40
2023-02-15T22:51:31.627Z,3.07
2023-02-15T22:54:05.542Z,3.17
2023-02-15T22:56:48.538Z,3.10
2023-02-15T22:59:34.539Z,3.13
2023-02-15T23:02:09.549Z,2.90
2023-02-15T23:04:37.035Z,2.87
2023-02-15T23:07:21.540Z,3.00
2023-02-15T23:10:08.541Z,2.67
2023-02-15T23:13:00.568Z,2.70
2023-02-15T23:15:34.538Z,2.70
2023-02-15T23:18:40.145Z,2.50
2023-02-15T23:21:27.163Z,2.90
2023-02-15T23:23:58.960Z,2.73
2023-02-15T23:26:36.080Z,3.27
2023-02-15T23:29:11.073Z,2.87
2023-02-15T23:31:51.800Z,3.37
2023-02-15T23:34:30.372Z,3.20
2023-02-15T23:37:04.431Z,3.27
2023-02-15T23:40:03.672Z,3.40
2023-02-15T23:42:34.241Z,3.27
2023-02-15T23:45:08.703Z,3.20
2023-02-15T23:47:54.828Z,3.17
2023-02-15T23:50:34.686Z,3.00
2023-02-15T23:53:08.711Z,3.43
2023-02-15T23:55:39.704Z,3.03
2023-02-15T23:58:20.711Z,2.97
